Time;durP1;ratioP1;P1;durP2;ratioP2;P2;SDS_P1;SDS_P2;PMS_P1;PMS_P2;Temp;Humidity;BMP_temperature;BMP_pressure;BME280_temperature;BME280_humidity;BME280_pressure;Samples;Min_cycle;Max_cycle;Signal;HPM_P1;HPM_P2
2022/03/31 00:00:35;;;;;;;10.35;4.38;;;-0.70;99.90;;;;;;4994054;28;20108;-74
2022/03/31 00:03:05;;;;;;;7.60;3.60;;;-0.70;99.90;;;;;;4993903;28;20065;-75
2022/03/31 00:05:33;;;;;;;7.85;3.35;;;-0.70;99.90;;;;;;4976596;28;20056;-74
2022/03/31 00:08:03;;;;;;;6.65;3.35;;;-0.60;99.90;;;;;;4993081;28;20062;-74
2022/03/31 00:10:33;;;;;;;5.78;2.70;;;-0.60;99.90;;;;;;4976458;28;20493;-74
2022/03/31 00:13:09;;;;;;;9.25;3.17;;;-0.60;99.90;;;;;;4975908;28;20069;-74
2022/03/31 00:15:39;;;;;;;6.78;2.72;;;-0.60;99.90;;;;;;4990913;28;20109;-74
2022/03/31 00:18:08;;;;;;;7.20;2.53;;;-0.70;99.90;;;;;;4992674;28;20058;-74
2022/03/31 00:20:36;;;;;;;6.30;2.95;;;-0.70;99.90;;;;;;4950902;28;20070;-76
2022/03/31 00:23:05;;;;;;;5.63;2.67;;;-0.70;99.90;;;;;;4974387;28;20081;-75
2022/03/31 00:25:32;;;;;;;6.57;3.33;;;-0.70;99.90;;;;;;4966848;28;20477;-74
2022/03/31 00:28:03;;;;;;;5.20;2.53;;;-0.70;99.90;;;;;;4994823;28;20046;-73
2022/03/31 00:30:32;;;;;;;9.13;3.23;;;-0.80;99.90;;;;;;5003677;28;20055;-74
2022/03/31 00:33:03;;;;;;;7.20;3.33;;;-0.80;99.90;;;;;;4975956;28;20062;-73
2022/03/31 00:35:31;;;;;;;6.30;3.65;;;-0.70;99.90;;;;;;4958929;28;20062;-74
2022/03/31 00:37:59;;;;;;;4.80;2.65;;;-0.70;99.90;;;;;;4975896;28;20157;-73
2022/03/31 00:40:26;;;;;;;5.90;2.90;;;-0.60;99.90;;;;;;4975875;28;20144;-73
2022/03/31 00:42:57;;;;;;;5.43;2.55;;;-0.60;99.90;;;;;;4958965;28;20042;-73
2022/03/31 00:45:26;;;;;;;3.22;2.63;;;-0.70;99.90;;;;;;4993414;28;20069;-73
2022/03/31 00:47:56;;;;;;;3.95;2.53;;;-0.70;99.90;;;;;;4993087;28;20054;-73
2022/03/31 00:50:25;;;;;;;3.85;2.38;;;-0.80;99.90;;;;;;4993031;28;20054;-73
2022/03/31 00:52:53;;;;;;;7.68;2.70;;;-0.80;99.90;;;;;;4992349;28;20477;-73
2022/03/31 00:55:20;;;;;;;4.50;2.45;;;-0.80;99.90;;;;;;4975524;28;20072;-74
2022/03/31 00:57:55;;;;;;;4.97;3.03;;;-0.80;99.90;;;;;;4992739;28;20065;-73
2022/03/31 01:00:23;;;;;;;7.07;2.47;;;-0.90;99.90;;;;;;4958924;28;20057;-74
2022/03/31 01:02:51;;;;;;;5.72;2.60;;;-1.00;99.90;;;;;;4972892;28;20055;-73
2022/03/31 01:05:18;;;;;;;5.82;2.75;;;-1.10;99.90;;;;;;4971937;28;20063;-73
2022/03/31 01:07:46;;;;;;;4.55;2.47;;;-1.20;99.90;;;;;;4973138;28;20062;-73
2022/03/31 01:10:15;;;;;;;6.40;3.30;;;-1.30;99.90;;;;;;4979602;28;20459;-73
2022/03/31 01:12:43;;;;;;;4.70;2.50;;;-1.40;99.90;;;;;;4973321;28;20069;-73
2022/03/31 01:15:17;;;;;;;4.55;2.83;;;-1.50;99.90;;;;;;4956691;28;20468;-73
2022/03/31 01:17:48;;;;;;;6.93;2.60;;;-1.50;99.90;;;;;;4975835;28;20055;-73
2022/03/31 01:20:20;;;;;;;3.78;2.45;;;-1.50;99.90;;;;;;4985147;28;20058;-74
2022/03/31 01:22:51;;;;;;;4.93;2.95;;;-1.50;99.90;;;;;;4975144;28;20546;-74
2022/03/31 01:25:20;;;;;;;10.23;3.80;;;-1.50;99.90;;;;;;4963221;28;20066;-73
2022/03/31 01:27:48;;;;;;;4.43;3.10;;;-1.40;99.90;;;;;;4957136;28;20073;-73
2022/03/31 01:30:18;;;;;;;4.70;2.58;;;-1.30;99.90;;;;;;4958877;28;20507;-74
2022/03/31 01:32:50;;;;;;;5.72;2.90;;;-1.20;99.90;;;;;;4992389;28;20062;-79
2022/03/31 01:35:18;;;;;;;4.78;2.90;;;-1.20;99.90;;;;;;4950852;28;20531;-80
2022/03/31 01:37:46;;;;;;;7.85;3.47;;;-1.20;99.90;;;;;;4962042;28;20064;-79
2022/03/31 01:40:14;;;;;;;4.57;2.60;;;-1.20;99.90;;;;;;4955464;28;20058;-78
2022/03/31 01:42:44;;;;;;;4.18;2.40;;;-1.20;99.90;;;;;;4939533;28;20062;-78
2022/03/31 01:45:15;;;;;;;6.00;2.80;;;-1.20;99.90;;;;;;4955193;28;20434;-77
2022/03/31 01:47:43;;;;;;;4.72;2.80;;;-1.20;99.90;;;;;;4988737;28;20050;-78
2022/03/31 01:50:11;;;;;;;8.73;2.90;;;-1.10;99.90;;;;;;4974929;28;20047;-78
2022/03/31 01:52:40;;;;;;;11.43;2.67;;;-1.10;99.90;;;;;;4991929;28;20043;-79
2022/03/31 01:55:09;;;;;;;6.78;2.80;;;-1.00;99.90;;;;;;4973527;28;20133;-79
2022/03/31 01:57:39;;;;;;;5.00;2.47;;;-0.90;99.90;;;;;;4958635;28;20058;-78
2022/03/31 02:00:10;;;;;;;5.32;2.22;;;-0.90;99.90;;;;;;4974537;28;20515;-78
2022/03/31 02:02:44;;;;;;;5.22;2.67;;;-0.90;99.90;;;;;;4991800;28;20058;-78
2022/03/31 02:05:12;;;;;;;7.20;3.38;;;-1.00;99.90;;;;;;4990945;28;20136;-79
2022/03/31 02:07:39;;;;;;;3.58;2.17;;;-1.00;99.90;;;;;;4958200;28;20054;-79
2022/03/31 02:10:12;;;;;;;3.78;2.58;;;-1.10;99.90;;;;;;4990630;28;20141;-79
2022/03/31 02:12:42;;;;;;;4.15;2.08;;;-1.20;99.90;;;;;;4976419;28;20055;-78
2022/03/31 02:15:11;;;;;;;4.85;2.28;;;-1.30;99.90;;;;;;4971529;28;20065;-78
2022/03/31 02:17:39;;;;;;;4.57;2.15;;;-1.40;99.90;;;;;;4977972;28;20058;-78
2022/03/31 02:20:11;;;;;;;6.20;2.58;;;-1.60;99.90;;;;;;4973577;28;20425;-78
2022/03/31 02:22:40;;;;;;;4.70;2.20;;;-1.60;99.90;;;;;;4973406;28;20054;-72
2022/03/31 02:25:11;;;;;;;4.32;2.35;;;-1.70;99.90;;;;;;4974066;28;20054;-74
2022/03/31 02:27:39;;;;;;;3.55;2.42;;;-1.70;99.90;;;;;;4974497;28;20140;-74
2022/03/31 02:30:11;;;;;;;7.93;2.67;;;-1.60;99.90;;;;;;4974293;28;20417;-73
2022/03/31 02:32:38;;;;;;;3.90;2.57;;;-1.60;99.90;;;;;;4973158;28;20109;-73
2022/03/31 02:35:07;;;;;;;7.68;2.85;;;-1.60;99.90;;;;;;4991777;28;20058;-74
2022/03/31 02:37:35;;;;;;;4.43;2.22;;;-1.70;99.90;;;;;;4974032;28;20058;-73
2022/03/31 02:40:03;;;;;;;6.75;2.78;;;-1.70;99.90;;;;;;4990825;28;20070;-73
2022/03/31 02:42:31;;;;;;;4.18;2.60;;;-1.70;99.90;;;;;;4974375;28;20056;-74
2022/03/31 02:44:58;;;;;;;6.38;2.60;;;-1.70;99.90;;;;;;4973964;28;20060;-75
2022/03/31 02:47:27;;;;;;;5.40;2.80;;;-1.60;99.90;;;;;;4991160;28;20143;-73
2022/03/31 02:49:55;;;;;;;4.22;2.45;;;-1.50;99.90;;;;;;4955478;28;20058;-72
2022/03/31 02:52:22;;;;;;;5.55;2.35;;;-1.40;99.90;;;;;;4991249;28;20057;-73
2022/03/31 02:57:35;;;;;;;7.43;2.65;;;-1.30;99.90;;;;;;4957384;28;20533;-74
2022/03/31 03:00:02;;;;;;;7.13;2.78;;;-1.40;99.90;;;;;;4989019;28;20145;-72
2022/03/31 03:02:32;;;;;;;3.30;2.30;;;-1.50;99.90;;;;;;4958439;28;20069;-73
2022/03/31 03:05:02;;;;;;;9.77;3.00;;;-1.50;99.90;;;;;;4956715;28;20046;-73
2022/03/31 03:07:30;;;;;;;6.45;2.42;;;-1.40;99.90;;;;;;4988345;28;20146;-74
2022/03/31 03:09:57;;;;;;;5.15;2.15;;;-1.30;99.90;;;;;;4991492;28;20046;-72
2022/03/31 03:12:25;;;;;;;4.53;2.60;;;-1.20;99.90;;;;;;4991005;28;20062;-72
2022/03/31 03:14:52;;;;;;;4.65;2.90;;;-1.20;99.90;;;;;;4985387;28;20114;-73
2022/03/31 03:17:19;;;;;;;4.40;2.40;;;-1.10;99.90;;;;;;4986948;28;20055;-75
2022/03/31 03:19:48;;;;;;;4.80;2.50;;;-1.00;99.90;;;;;;4975396;28;20058;-74
2022/03/31 03:22:16;;;;;;;3.03;2.53;;;-1.00;99.90;;;;;;4973496;28;20596;-73
2022/03/31 03:24:43;;;;;;;4.15;1.85;;;-0.90;99.90;;;;;;4973115;28;20470;-73
2022/03/31 03:27:11;;;;;;;2.97;2.33;;;-1.00;99.90;;;;;;4975535;28;20511;-73
2022/03/31 03:29:45;;;;;;;5.03;2.38;;;-0.90;99.90;;;;;;4994682;28;20086;-73
2022/03/31 03:32:13;;;;;;;5.30;2.40;;;-0.90;99.90;;;;;;4994139;28;20578;-73
2022/03/31 03:34:41;;;;;;;3.67;2.40;;;-0.80;99.90;;;;;;4972632;28;20050;-73
2022/03/31 03:37:09;;;;;;;3.28;2.13;;;-0.90;99.90;;;;;;4992703;28;20054;-74
2022/03/31 03:39:37;;;;;;;3.85;2.40;;;-0.90;99.90;;;;;;4994055;28;20418;-73
2022/03/31 03:42:07;;;;;;;5.72;2.53;;;-0.90;99.90;;;;;;4993484;28;20065;-73
2022/03/31 03:44:35;;;;;;;4.10;2.58;;;-0.90;99.90;;;;;;4973915;28;20081;-73
2022/03/31 03:47:03;;;;;;;3.40;2.75;;;-0.90;99.90;;;;;;4973718;28;20089;-73
2022/03/31 03:49:30;;;;;;;4.45;2.38;;;-0.90;99.90;;;;;;4973515;28;20478;-78
2022/03/31 03:51:58;;;;;;;7.03;2.50;;;-0.90;99.90;;;;;;4957885;28;20097;-78
2022/03/31 03:54:28;;;;;;;4.55;1.92;;;-0.90;99.90;;;;;;4979952;28;20057;-79
2022/03/31 03:56:55;;;;;;;4.47;2.70;;;-1.00;99.90;;;;;;5002386;28;20058;-81
2022/03/31 03:59:25;;;;;;;4.18;2.67;;;-1.00;99.90;;;;;;4975964;28;20057;-79
2022/03/31 04:01:52;;;;;;;4.32;3.22;;;-1.00;99.90;;;;;;4999252;28;20051;-77
2022/03/31 04:04:20;;;;;;;8.07;2.72;;;-1.00;99.90;;;;;;4978390;28;20132;-79
2022/03/31 04:06:47;;;;;;;6.70;2.50;;;-0.90;99.90;;;;;;4982013;28;20054;-80
2022/03/31 04:09:14;;;;;;;3.80;2.53;;;-0.90;99.90;;;;;;4970003;28;20049;-79
2022/03/31 04:11:43;;;;;;;6.05;2.67;;;-0.80;99.90;;;;;;4957518;28;20042;-79
2022/03/31 04:14:11;;;;;;;4.32;2.75;;;-0.80;99.90;;;;;;4962730;28;20055;-79
2022/03/31 04:16:38;;;;;;;3.30;2.50;;;-0.70;99.90;;;;;;4989372;28;20554;-79
2022/03/31 04:19:07;;;;;;;4.78;3.05;;;-0.70;99.90;;;;;;4970110;28;20058;-78
2022/03/31 04:21:35;;;;;;;5.05;2.55;;;-0.70;99.90;;;;;;4990068;28;20089;-80
2022/03/31 04:24:03;;;;;;;5.00;2.40;;;-0.70;99.90;;;;;;4973088;28;20054;-79
2022/03/31 04:26:32;;;;;;;5.43;2.38;;;-0.70;99.90;;;;;;4959164;28;20061;-78
2022/03/31 04:29:02;;;;;;;3.15;2.40;;;-0.70;99.90;;;;;;4992259;28;20125;-78
2022/03/31 04:31:30;;;;;;;3.47;2.45;;;-0.70;99.90;;;;;;4975985;28;20057;-78
2022/03/31 04:33:57;;;;;;;6.45;3.58;;;-0.60;99.90;;;;;;4991724;28;20478;-80
2022/03/31 04:36:24;;;;;;;3.78;2.22;;;-0.60;99.90;;;;;;4993398;28;20070;-79
2022/03/31 04:38:52;;;;;;;3.13;2.20;;;-0.60;99.90;;;;;;4990423;28;20466;-79
2022/03/31 04:41:19;;;;;;;5.70;2.53;;;-0.60;99.90;;;;;;4974977;28;20400;-79
2022/03/31 04:43:47;;;;;;;3.08;2.28;;;-0.60;99.90;;;;;;4975562;28;20584;-80
2022/03/31 04:46:16;;;;;;;7.72;2.53;;;-0.60;99.90;;;;;;4992780;28;20523;-79
2022/03/31 04:48:43;;;;;;;2.70;2.50;;;-0.60;99.90;;;;;;4991792;28;20042;-80
2022/03/31 04:51:12;;;;;;;5.25;2.58;;;-0.60;99.90;;;;;;4958588;28;20100;-79
2022/03/31 04:53:39;;;;;;;5.05;2.42;;;-0.60;99.90;;;;;;4958260;28;20573;-80
2022/03/31 04:56:08;;;;;;;4.75;2.63;;;-0.60;99.90;;;;;;4950911;28;20081;-79
2022/03/31 04:58:36;;;;;;;4.28;2.72;;;-0.60;99.90;;;;;;4991965;28;20161;-80
2022/03/31 05:01:04;;;;;;;4.63;2.90;;;-0.50;99.90;;;;;;4985982;28;20522;-80
2022/03/31 05:03:33;;;;;;;7.38;3.00;;;-0.50;99.90;;;;;;4969323;28;20054;-79
2022/03/31 05:06:00;;;;;;;11.70;3.22;;;-0.50;99.90;;;;;;4989139;28;20062;-79
2022/03/31 05:08:28;;;;;;;4.43;2.40;;;-0.50;99.90;;;;;;4945115;28;20054;-80
2022/03/31 05:10:55;;;;;;;5.85;2.65;;;-0.50;99.90;;;;;;4956162;28;20105;-80
2022/03/31 05:13:22;;;;;;;3.58;2.15;;;-0.50;99.90;;;;;;4992224;28;20081;-79
2022/03/31 05:15:50;;;;;;;6.20;2.50;;;-0.60;99.90;;;;;;4969206;28;20069;-78
2022/03/31 05:18:17;;;;;;;3.88;2.67;;;-0.60;99.90;;;;;;4972887;28;20074;-81
2022/03/31 05:20:46;;;;;;;8.68;2.95;;;-0.60;99.90;;;;;;4965829;28;20089;-80
2022/03/31 05:23:14;;;;;;;3.47;2.22;;;-0.60;99.90;;;;;;4957118;28;20085;-79
2022/03/31 05:25:41;;;;;;;5.53;2.85;;;-0.60;99.90;;;;;;4974086;28;20085;-79
2022/03/31 05:28:11;;;;;;;5.10;3.10;;;-0.50;99.90;;;;;;4987066;28;20510;-79
2022/03/31 05:30:39;;;;;;;5.90;2.63;;;-0.40;99.90;;;;;;4972708;28;20058;-82
2022/03/31 05:33:08;;;;;;;7.30;3.55;;;-0.30;99.90;;;;;;4990558;28;20062;-80
2022/03/31 05:35:36;;;;;;;6.05;2.95;;;-0.30;99.90;;;;;;4989596;28;20089;-79
2022/03/31 05:38:07;;;;;;;5.43;3.00;;;-0.20;99.90;;;;;;4991587;28;20423;-80
2022/03/31 05:40:35;;;;;;;3.63;2.80;;;-0.20;99.90;;;;;;4991354;28;20050;-80
2022/03/31 05:43:03;;;;;;;3.67;1.98;;;-0.20;99.90;;;;;;4973650;28;20066;-81
2022/03/31 05:45:31;;;;;;;4.93;2.10;;;-0.10;99.90;;;;;;4966153;28;20078;-80
2022/03/31 05:47:59;;;;;;;3.88;2.53;;;-0.10;99.90;;;;;;4962301;28;20055;-80
2022/03/31 05:50:27;;;;;;;9.52;2.72;;;0.00;99.90;;;;;;4990159;28;20514;-78
2022/03/31 05:52:55;;;;;;;4.60;2.28;;;0.10;99.90;;;;;;4991290;28;20515;-80
2022/03/31 05:55:24;;;;;;;4.72;2.38;;;0.10;99.90;;;;;;4973528;28;20065;-79
2022/03/31 05:57:51;;;;;;;3.55;2.70;;;0.10;99.90;;;;;;4971163;28;20059;-79
2022/03/31 06:00:21;;;;;;;3.70;2.25;;;0.10;99.90;;;;;;4980720;28;20137;-79
2022/03/31 06:02:50;;;;;;;4.78;2.20;;;0.20;99.90;;;;;;4960116;28;20055;-79
2022/03/31 06:05:19;;;;;;;3.63;1.88;;;0.30;99.90;;;;;;4945857;28;20051;-80
2022/03/31 06:07:48;;;;;;;2.72;2.45;;;0.20;99.90;;;;;;4971288;28;20092;-81
2022/03/31 06:10:15;;;;;;;6.30;3.15;;;0.30;99.90;;;;;;4973662;28;20042;-81
2022/03/31 06:12:45;;;;;;;3.55;2.78;;;0.50;99.90;;;;;;4991260;28;20054;-80
2022/03/31 06:15:15;;;;;;;3.90;2.83;;;1.00;99.90;;;;;;4981356;28;20054;-82
2022/03/31 06:17:46;;;;;;;6.65;2.30;;;1.60;99.90;;;;;;4986901;28;20062;-74
2022/03/31 06:20:16;;;;;;;11.45;4.28;;;1.90;99.90;;;;;;4985111;28;20058;-74
2022/03/31 06:22:44;;;;;;;5.65;2.50;;;2.30;99.90;;;;;;4981856;28;20046;-72
2022/03/31 06:25:14;;;;;;;2.70;2.05;;;2.50;99.90;;;;;;4975984;28;20058;-74
2022/03/31 06:27:42;;;;;;;4.88;2.47;;;2.50;99.90;;;;;;4979512;28;20353;-74
2022/03/31 06:30:13;;;;;;;3.40;2.20;;;2.30;99.90;;;;;;4969345;28;20067;-73
2022/03/31 06:32:40;;;;;;;3.40;2.47;;;2.00;99.90;;;;;;4991027;28;20081;-74
2022/03/31 06:35:14;;;;;;;5.28;2.17;;;1.80;99.90;;;;;;4988154;28;20068;-80
2022/03/31 06:37:43;;;;;;;3.70;2.50;;;1.90;99.90;;;;;;4973744;28;20054;-81
2022/03/31 06:40:13;;;;;;;7.43;3.22;;;1.90;99.90;;;;;;4959080;28;20057;-81
2022/03/31 06:42:42;;;;;;;4.50;2.55;;;1.90;99.90;;;;;;4960691;28;20056;-81
2022/03/31 06:45:15;;;;;;;4.80;2.45;;;1.80;99.90;;;;;;4989395;28;20046;-82
2022/03/31 06:47:43;;;;;;;;;;;1.70;99.90;;;;;;4969886;28;20059;-82
2022/03/31 06:50:14;;;;;;;3.30;2.13;;;1.70;99.90;;;;;;4975824;28;19925;-76
2022/03/31 06:52:41;;;;;;;6.78;2.05;;;1.80;99.90;;;;;;4985569;28;20109;-84
2022/03/31 06:55:10;;;;;;;10.38;2.35;;;1.90;99.90;;;;;;4946523;28;20050;-84
2022/03/31 06:57:39;;;;;;;6.72;2.70;;;2.60;99.90;;;;;;4985425;28;20526;-80
2022/03/31 07:00:09;;;;;;;3.90;2.33;;;3.70;99.90;;;;;;4980665;28;20046;-82
2022/03/31 07:02:38;;;;;;;4.88;2.00;;;4.80;99.90;;;;;;4987199;28;20069;-79
2022/03/31 07:05:07;;;;;;;7.63;2.50;;;5.70;99.90;;;;;;4988405;28;20058;-75
2022/03/31 07:07:34;;;;;;;3.42;2.20;;;6.60;99.90;;;;;;4993962;28;20050;-76
2022/03/31 07:10:01;;;;;;;5.95;2.15;;;7.20;99.90;;;;;;4993004;28;20054;-79
2022/03/31 07:12:31;;;;;;;4.38;2.20;;;7.50;96.30;;;;;;4990452;28;20093;-78
2022/03/31 07:14:58;;;;;;;2.30;1.95;;;8.20;90.60;;;;;;4979503;28;20054;-76
2022/03/31 07:17:28;;;;;;;5.63;2.10;;;8.00;85.30;;;;;;4969384;28;20065;-77
2022/03/31 07:19:57;;;;;;;8.02;2.03;;;8.00;86.70;;;;;;4990212;28;20371;-73
2022/03/31 07:22:25;;;;;;;11.00;2.00;;;8.50;85.20;;;;;;4991315;28;20051;-75
2022/03/31 07:24:52;;;;;;;5.47;2.10;;;9.30;77.80;;;;;;4991143;28;20050;-76
2022/03/31 07:27:19;;;;;;;7.70;2.45;;;9.80;74.30;;;;;;4992557;28;20511;-75
2022/03/31 07:29:47;;;;;;;7.43;2.00;;;10.30;70.40;;;;;;4973861;28;20058;-76
2022/03/31 07:32:15;;;;;;;7.55;2.30;;;10.20;68.40;;;;;;4992265;28;20522;-76
2022/03/31 07:34:42;;;;;;;7.85;2.80;;;10.80;67.40;;;;;;4971534;28;20531;-76
2022/03/31 07:37:10;;;;;;;4.70;2.10;;;11.00;64.50;;;;;;4992826;28;20066;-76
2022/03/31 07:39:41;;;;;;;5.30;2.10;;;11.00;63.70;;;;;;4982650;28;20081;-75
2022/03/31 07:42:09;;;;;;;7.57;2.55;;;11.10;63.70;;;;;;4992423;28;20054;-76
2022/03/31 07:44:36;;;;;;;13.90;2.83;;;10.20;63.20;;;;;;4982712;28;20058;-77
2022/03/31 07:47:04;;;;;;;10.95;2.60;;;10.40;65.40;;;;;;4994040;28;20054;-77
2022/03/31 07:49:32;;;;;;;9.95;2.80;;;11.20;64.30;;;;;;4976124;28;20105;-78
2022/03/31 07:51:59;;;;;;;14.57;2.47;;;12.00;61.10;;;;;;4979969;28;20475;-77
2022/03/31 07:54:28;;;;;;;11.40;2.72;;;12.50;60.10;;;;;;4987375;28;20046;-77
2022/03/31 07:56:56;;;;;;;5.35;2.10;;;12.00;57.40;;;;;;4993509;28;20074;-76
2022/03/31 07:59:25;;;;;;;5.53;2.53;;;10.80;58.90;;;;;;4988287;28;20503;-77
2022/03/31 08:01:53;;;;;;;9.38;2.63;;;10.30;60.40;;;;;;4984039;28;20058;-77
2022/03/31 08:04:21;;;;;;;10.85;2.65;;;9.60;62.00;;;;;;4987610;28;20047;-76
2022/03/31 08:06:50;;;;;;;11.00;2.65;;;9.00;64.30;;;;;;4984256;28;20048;-75
2022/03/31 08:09:20;;;;;;;6.90;2.35;;;8.20;66.20;;;;;;4982317;28;20072;-76
2022/03/31 08:11:51;;;;;;;8.82;2.65;;;7.40;69.20;;;;;;4962298;28;20454;-75
2022/03/31 08:14:19;;;;;;;6.97;2.60;;;6.80;71.50;;;;;;4981617;28;20043;-76
2022/03/31 08:16:49;;;;;;;10.02;2.22;;;6.40;74.00;;;;;;4983387;28;20132;-74
2022/03/31 08:19:19;;;;;;;8.77;1.90;;;6.40;76.30;;;;;;4981203;28;20149;-75
2022/03/31 08:21:48;;;;;;;5.75;2.65;;;6.10;77.40;;;;;;4984191;28;20074;-74
2022/03/31 08:24:17;;;;;;;19.95;2.80;;;6.10;80.90;;;;;;4952979;28;20058;-76
2022/03/31 08:26:46;;;;;;;5.57;2.40;;;7.00;79.80;;;;;;4986557;28;20050;-77
2022/03/31 08:29:15;;;;;;;9.32;2.78;;;6.70;77.10;;;;;;4987099;28;20055;-76
2022/03/31 08:31:43;;;;;;;11.40;3.83;;;6.30;79.60;;;;;;4962322;28;20090;-74
2022/03/31 08:34:11;;;;;;;4.57;2.80;;;6.10;82.80;;;;;;4980157;28;20553;-75
2022/03/31 08:36:39;;;;;;;8.65;2.90;;;5.90;83.20;;;;;;4979625;28;20086;-75
2022/03/31 08:39:09;;;;;;;7.45;2.67;;;5.60;83.20;;;;;;4973304;28;20125;-71
2022/03/31 08:41:36;;;;;;;8.60;2.78;;;5.20;88.80;;;;;;4972942;28;20066;-70
2022/03/31 08:44:05;;;;;;;7.15;1.95;;;4.80;90.60;;;;;;4973147;28;20050;-71
2022/03/31 08:46:35;;;;;;;10.55;2.90;;;4.50;93.40;;;;;;4973415;28;20069;-71
2022/03/31 08:49:04;;;;;;;9.55;2.30;;;4.20;97.10;;;;;;4987585;28;20061;-72
2022/03/31 08:51:31;;;;;;;9.32;3.03;;;4.00;99.30;;;;;;4992006;28;20050;-73
2022/03/31 08:53:58;;;;;;;10.05;1.70;;;3.90;98.60;;;;;;4979781;28;20062;-73
2022/03/31 08:56:26;;;;;;;9.98;2.15;;;3.80;98.70;;;;;;4953558;28;20071;-74
2022/03/31 08:58:54;;;;;;;7.45;1.63;;;4.30;99.10;;;;;;4952689;28;20061;-72
2022/03/31 09:01:21;;;;;;;9.30;2.05;;;4.70;95.80;;;;;;4966653;28;20138;-72
2022/03/31 09:03:50;;;;;;;5.22;1.63;;;5.30;91.50;;;;;;4968126;28;20047;-73
2022/03/31 09:06:25;;;;;;;3.80;1.60;;;6.20;90.20;;;;;;4985856;28;20047;-72
2022/03/31 09:08:57;;;;;;;11.90;2.00;;;;;;;;;;4972550;28;20133;-72
2022/03/31 09:11:28;;;;;;;6.03;1.35;;;9.60;68.40;;;;;;4958624;28;20141;-72
2022/03/31 09:13:58;;;;;;;11.05;2.22;;;11.00;61.10;;;;;;4963105;28;20150;-71
2022/03/31 09:16:34;;;;;;;9.15;1.70;;;10.70;57.60;;;;;;4971805;28;20458;-72
2022/03/31 09:19:07;;;;;;;2.55;1.35;;;10.10;58.00;;;;;;4969518;28;20055;-74
2022/03/31 09:21:35;;;;;;;9.88;2.20;;;11.00;57.30;;;;;;4973397;28;20055;-74
2022/03/31 09:24:04;;;;;;;12.77;2.35;;;12.10;55.10;;;;;;4976490;28;20057;-71
2022/03/31 09:26:32;;;;;;;10.05;2.08;;;12.60;54.20;;;;;;4954288;28;20094;-72
2022/03/31 09:29:13;;;;;;;8.57;2.22;;;13.40;53.30;;;;;;4974390;28;20078;-71
2022/03/31 09:31:41;;;;;;;3.28;1.40;;;12.70;51.00;;;;;;4971567;28;20141;-70
2022/03/31 09:34:13;;;;;;;5.65;1.58;;;12.90;51.50;;;;;;4974251;28;20058;-71
2022/03/31 09:36:45;;;;;;;8.27;1.60;;;13.60;50.30;;;;;;4954647;28;20062;-72
2022/03/31 09:39:16;;;;;;;5.33;1.40;;;12.70;49.70;;;;;;4965933;28;20055;-72
2022/03/31 09:41:47;;;;;;;5.93;1.55;;;12.00;51.60;;;;;;4961368;28;20130;-72
2022/03/31 09:44:17;;;;;;;8.25;1.75;;;11.20;51.50;;;;;;4964082;28;20074;-71
2022/03/31 09:46:47;;;;;;;4.35;1.27;;;10.50;52.60;;;;;;4952378;29;20150;-72
2022/03/31 09:49:21;;;;;;;4.55;1.50;;;10.20;52.90;;;;;;4966518;28;20519;-72
2022/03/31 09:51:51;;;;;;;3.92;1.42;;;9.30;53.50;;;;;;4969732;28;20066;-73
2022/03/31 09:54:23;;;;;;;5.30;1.00;;;8.70;55.50;;;;;;4971337;28;20059;-71
2022/03/31 09:56:50;;;;;;;3.58;1.17;;;9.10;55.10;;;;;;4971200;28;20062;-71
2022/03/31 09:59:18;;;;;;;1.80;1.08;;;9.00;54.60;;;;;;4971682;28;20558;-71
2022/03/31 10:01:48;;;;;;;6.75;1.50;;;9.30;54.80;;;;;;4971378;28;20478;-71
2022/03/31 10:04:17;;;;;;;3.67;1.40;;;10.00;54.20;;;;;;4967394;28;20185;-70
2022/03/31 10:06:44;;;;;;;5.15;1.48;;;10.00;52.50;;;;;;4953865;28;20531;-70
2022/03/31 10:09:13;;;;;;;4.20;1.45;;;10.20;53.50;;;;;;4971520;28;20081;-70
2022/03/31 10:11:42;;;;;;;5.28;1.73;;;11.60;51.70;;;;;;4971518;28;20142;-71
2022/03/31 10:14:32;;;;;;;1.75;1.15;;;13.20;48.90;;;;;;4970342;28;20058;-71
2022/03/31 10:17:03;;;;;;;4.05;1.27;;;13.50;45.10;;;;;;4971771;28;20059;-70
2022/03/31 10:19:36;;;;;;;3.17;1.50;;;12.00;45.90;;;;;;4953776;28;20146;-71
2022/03/31 10:22:06;;;;;;;4.75;1.45;;;10.40;48.80;;;;;;4971676;28;20054;-72
2022/03/31 10:24:44;;;;;;;9.27;1.52;;;9.10;50.20;;;;;;4971739;28;20047;-72
2022/03/31 10:27:26;;;;;;;12.18;1.65;;;8.40;52.30;;;;;;4954349;28;20408;-72
2022/03/31 10:29:54;;;;;;;7.32;1.65;;;9.70;53.50;;;;;;4954029;28;20065;-72
2022/03/31 10:32:24;;;;;;;9.10;1.40;;;10.70;50.90;;;;;;4971391;28;20051;-71
2022/03/31 10:34:55;;;;;;;7.93;1.88;;;10.30;50.00;;;;;;4971166;28;20058;-71
2022/03/31 10:37:35;;;;;;;5.60;1.42;;;9.60;52.20;;;;;;4971243;28;20066;-72
2022/03/31 10:40:05;;;;;;;5.15;1.63;;;9.30;54.00;;;;;;4969628;28;20106;-72
2022/03/31 10:42:33;;;;;;;5.10;2.03;;;10.30;51.10;;;;;;4971297;28;20059;-71
2022/03/31 10:45:12;;;;;;;11.07;2.47;;;10.30;50.90;;;;;;4971065;28;20058;-71
2022/03/31 10:47:42;;;;;;;6.25;1.20;;;9.80;51.40;;;;;;4969999;28;20113;-71
2022/03/31 10:50:24;;;;;;;5.15;2.00;;;9.50;50.90;;;;;;4948253;28;20339;-69
2022/03/31 10:53:00;;;;;;;13.38;2.42;;;9.00;52.60;;;;;;4970916;28;20511;-72
2022/03/31 10:55:37;;;;;;;7.28;1.90;;;8.80;54.10;;;;;;4971246;28;20062;-71
2022/03/31 10:58:06;;;;;;;7.68;1.63;;;9.40;54.50;;;;;;4970974;28;20063;-71
2022/03/31 11:00:33;;;;;;;3.67;1.73;;;9.80;53.70;;;;;;4970792;28;20054;-71
2022/03/31 11:03:00;;;;;;;6.18;2.30;;;9.90;53.10;;;;;;4970999;28;20519;-71
2022/03/31 11:05:32;;;;;;;2.13;1.45;;;10.50;51.80;;;;;;4971217;28;20521;-70
2022/03/31 11:08:05;;;;;;;8.18;1.70;;;11.10;50.20;;;;;;4970884;28;20058;-70
2022/03/31 11:10:42;;;;;;;12.35;1.75;;;11.20;49.50;;;;;;4971754;28;20055;-70
2022/03/31 11:13:10;;;;;;;2.42;1.30;;;10.90;50.30;;;;;;4971395;28;20054;-70
2022/03/31 11:15:38;;;;;;;4.03;1.67;;;10.60;51.30;;;;;;4969986;28;20154;-69
2022/03/31 11:18:07;;;;;;;4.22;1.70;;;10.30;52.20;;;;;;4974436;28;20051;-70
2022/03/31 11:20:36;;;;;;;9.32;1.92;;;10.00;52.80;;;;;;4980164;28;20095;-71
2022/03/31 11:23:07;;;;;;;7.10;1.83;;;10.40;53.10;;;;;;4973072;28;20050;-72
2022/03/31 11:25:35;;;;;;;2.55;1.65;;;10.60;52.80;;;;;;4969944;28;20051;-70
2022/03/31 11:28:12;;;;;;;3.80;1.73;;;10.70;52.60;;;;;;4969523;28;20059;-71
2022/03/31 11:30:40;;;;;;;8.88;1.42;;;12.10;52.40;;;;;;4970762;28;20059;-71
2022/03/31 11:33:10;;;;;;;7.32;1.88;;;14.00;49.30;;;;;;4951818;28;20070;-71
2022/03/31 11:35:39;;;;;;;9.23;1.92;;;15.60;45.60;;;;;;4953504;28;20062;-71
2022/03/31 11:38:11;;;;;;;6.82;1.85;;;17.00;43.90;;;;;;4953648;28;20058;-70
2022/03/31 11:40:41;;;;;;;4.40;1.70;;;17.80;41.90;;;;;;4971122;28;20137;-72
2022/03/31 11:43:11;;;;;;;4.18;1.58;;;17.80;42.00;;;;;;4969613;28;20655;-74
2022/03/31 11:45:43;;;;;;;5.13;1.50;;;17.60;41.00;;;;;;4968472;28;20062;-74
2022/03/31 11:48:13;;;;;;;5.43;1.83;;;17.80;41.00;;;;;;4973040;28;20051;-73
2022/03/31 11:50:53;;;;;;;8.65;1.50;;;18.10;40.40;;;;;;4974660;28;20119;-74
2022/03/31 11:53:26;;;;;;;9.13;1.90;;;18.20;40.30;;;;;;4969180;28;20470;-74
2022/03/31 11:55:59;;;;;;;9.82;2.05;;;17.80;40.50;;;;;;4971195;28;20059;-74
2022/03/31 11:58:30;;;;;;;9.18;2.00;;;15.60;41.50;;;;;;4974421;28;20528;-74
2022/03/31 12:00:58;;;;;;;8.90;1.83;;;15.30;44.10;;;;;;4973480;28;20158;-74
2022/03/31 12:03:34;;;;;;;5.22;1.63;;;15.80;43.10;;;;;;4974769;28;20058;-73
2022/03/31 12:06:05;;;;;;;5.60;1.60;;;15.30;43.20;;;;;;4966929;28;20458;-73
2022/03/31 12:08:34;;;;;;;3.95;1.48;;;13.60;44.10;;;;;;4973336;28;20054;-74
2022/03/31 12:11:02;;;;;;;2.63;1.25;;;13.30;45.80;;;;;;4973773;28;20054;-72
2022/03/31 12:13:35;;;;;;;5.35;1.67;;;12.90;45.10;;;;;;4958939;28;20055;-73
2022/03/31 12:16:09;;;;;;;7.75;1.83;;;11.70;46.70;;;;;;4952341;28;20569;-74
2022/03/31 12:18:40;;;;;;;5.68;1.40;;;10.70;48.60;;;;;;4963696;28;20060;-73
2022/03/31 12:21:10;;;;;;;2.65;1.40;;;10.70;49.10;;;;;;4964389;28;20153;-74
2022/03/31 12:23:43;;;;;;;3.88;1.33;;;11.60;49.60;;;;;;4972543;28;20054;-74
2022/03/31 12:26:16;;;;;;;3.25;1.73;;;11.90;49.00;;;;;;4965075;28;20058;-74
2022/03/31 12:28:47;;;;;;;6.82;1.27;;;12.30;48.00;;;;;;4963013;28;20157;-79
2022/03/31 12:31:23;;;;;;;6.18;1.63;;;13.10;47.30;;;;;;4961067;28;20054;-79
2022/03/31 12:33:52;;;;;;;4.78;1.60;;;13.50;46.60;;;;;;4960664;28;20114;-78
2022/03/31 12:36:27;;;;;;;6.68;1.35;;;13.80;45.80;;;;;;4962291;28;20113;-79
2022/03/31 12:38:57;;;;;;;5.55;1.60;;;13.30;45.40;;;;;;4943465;28;20055;-79
2022/03/31 12:41:29;;;;;;;5.25;1.17;;;12.40;46.60;;;;;;4962998;28;20051;-79
2022/03/31 12:44:04;;;;;;;13.55;2.40;;;11.90;48.40;;;;;;4962005;28;20127;-73
2022/03/31 12:46:36;;;;;;;9.00;1.90;;;12.70;47.90;;;;;;4962027;28;20417;-73
2022/03/31 12:49:08;;;;;;;5.28;1.33;;;12.40;47.70;;;;;;4957124;28;20055;-74
2022/03/31 12:51:50;;;;;;;7.63;1.42;;;11.50;47.80;;;;;;4969989;28;20050;-74
2022/03/31 12:54:26;;;;;;;5.18;1.42;;;12.10;48.70;;;;;;4949428;28;20130;-73
2022/03/31 12:56:56;;;;;;;5.15;1.42;;;13.30;46.30;;;;;;4969828;28;20054;-72
2022/03/31 12:59:26;;;;;;;9.82;2.80;;;14.40;44.80;;;;;;4964997;28;20129;-73
2022/03/31 13:02:03;;;;;;;3.13;1.33;;;15.70;43.30;;;;;;4954169;28;20054;-74
2022/03/31 13:04:31;;;;;;;5.97;1.45;;;16.90;41.00;;;;;;4964379;28;20051;-73